Time;durP1;ratioP1;P1;durP2;ratioP2;P2;SDS_P1;SDS_P2;PMS_P1;PMS_P2;Temp;Humidity;BMP_temperature;BMP_pressure;BME280_temperature;BME280_humidity;BME280_pressure;Samples;Min_cycle;Max_cycle;Signal;HPM_P1;HPM_P2
2022/11/04 00:02:04;;;;;;;2.43;1.63;;;10.10;99.90;;;;;;4991748;28;20227;-54
2022/11/04 00:04:31;;;;;;;3.37;1.90;;;10.10;99.90;;;;;;5018292;28;20294;-57
2022/11/04 00:06:59;;;;;;;2.70;1.70;;;10.00;99.90;;;;;;5053577;28;20209;-56
2022/11/04 00:09:28;;;;;;;3.63;1.87;;;10.00;99.90;;;;;;5053441;28;20209;-57
2022/11/04 00:14:42;;;;;;;2.00;1.80;;;10.00;99.90;;;;;;5053098;28;20204;-58
2022/11/04 00:17:18;;;;;;;3.53;1.60;;;9.90;99.90;;;;;;5052906;28;20212;-57
2022/11/04 00:30:53;;;;;;;2.13;1.77;;;9.80;99.90;;;;;;5052811;28;20335;-57
2022/11/04 00:33:25;;;;;;;3.43;1.60;;;9.80;99.90;;;;;;5053131;28;20297;-55
2022/11/04 00:35:54;;;;;;;1.90;1.50;;;9.70;99.90;;;;;;5052825;28;20219;-54
2022/11/04 00:38:22;;;;;;;2.10;1.60;;;9.70;99.90;;;;;;5053022;28;20208;-57
2022/11/04 00:40:48;;;;;;;2.20;1.73;;;9.60;99.90;;;;;;5052023;28;20203;-57
2022/11/04 00:43:15;;;;;;;2.77;1.67;;;9.60;99.90;;;;;;5052598;28;20213;-56
2022/11/04 00:45:42;;;;;;;2.40;1.53;;;9.60;99.90;;;;;;5052461;28;20281;-57
2022/11/04 00:48:09;;;;;;;2.60;1.80;;;9.50;99.90;;;;;;5052488;28;20208;-56
2022/11/04 00:50:36;;;;;;;1.87;1.40;;;9.60;99.90;;;;;;5052555;28;20207;-57
2022/11/04 00:53:04;;;;;;;1.77;1.50;;;9.50;99.90;;;;;;5052372;28;20228;-55
2022/11/04 00:55:32;;;;;;;1.80;1.40;;;9.50;99.90;;;;;;5052378;28;20662;-57
2022/11/04 00:57:59;;;;;;;2.77;1.47;;;9.50;99.90;;;;;;5052209;28;20669;-57
2022/11/04 01:00:25;;;;;;;2.80;1.63;;;9.50;99.90;;;;;;5052456;28;20217;-57
2022/11/04 01:02:52;;;;;;;2.30;1.60;;;9.50;99.90;;;;;;5052354;28;20282;-56
2022/11/04 01:05:19;;;;;;;2.37;1.40;;;9.50;99.90;;;;;;5051516;28;20235;-57
2022/11/04 01:07:45;;;;;;;3.00;1.70;;;9.60;99.90;;;;;;5051669;28;20208;-57
2022/11/04 01:10:12;;;;;;;3.27;2.23;;;9.60;99.90;;;;;;5052410;28;20213;-57
2022/11/04 01:12:40;;;;;;;2.90;1.97;;;9.60;99.90;;;;;;5052277;28;20323;-56
2022/11/04 01:15:08;;;;;;;2.30;2.07;;;9.60;99.90;;;;;;5051946;28;20212;-56
2022/11/04 01:17:34;;;;;;;2.50;2.07;;;9.60;99.90;;;;;;5051919;28;20216;-57
2022/11/04 01:20:01;;;;;;;2.90;2.10;;;9.60;99.90;;;;;;5052149;28;20256;-57
2022/11/04 01:22:28;;;;;;;5.47;2.30;;;9.60;99.90;;;;;;5051828;28;20731;-57
2022/11/04 01:24:55;;;;;;;2.90;2.47;;;9.60;99.90;;;;;;5052226;28;20228;-52
2022/11/04 01:27:21;;;;;;;3.90;2.30;;;9.70;99.90;;;;;;5051712;28;20263;-55
2022/11/04 01:29:49;;;;;;;4.57;2.73;;;9.70;99.90;;;;;;5052029;28;20259;-54
2022/11/04 01:32:16;;;;;;;3.47;2.43;;;9.70;99.90;;;;;;5052343;28;20255;-54
2022/11/04 01:34:43;;;;;;;4.73;3.13;;;9.70;99.90;;;;;;5052182;28;20229;-54
2022/11/04 01:37:09;;;;;;;4.20;2.53;;;9.80;99.90;;;;;;5052133;28;20621;-52
2022/11/04 01:39:36;;;;;;;3.90;2.60;;;9.70;99.90;;;;;;5052696;28;20266;-51
2022/11/04 01:42:03;;;;;;;4.43;2.77;;;9.70;99.90;;;;;;5051725;28;20238;-49
2022/11/04 01:45:01;;;;;;;3.03;2.60;;;9.80;99.90;;;;;;5051743;28;20603;-52
2022/11/04 01:47:36;;;;;;;4.97;3.00;;;9.80;99.90;;;;;;4970435;28;20273;-51
2022/11/04 01:50:08;;;;;;;3.87;2.73;;;9.70;99.90;;;;;;5037614;28;20230;-49
2022/11/04 01:52:38;;;;;;;3.80;2.83;;;9.70;99.90;;;;;;5051630;28;20228;-50
2022/11/04 01:55:13;;;;;;;4.27;3.03;;;9.70;99.90;;;;;;5051799;28;20730;-52
2022/11/04 01:57:42;;;;;;;4.20;2.57;;;9.70;99.90;;;;;;5051371;28;20237;-54
2022/11/04 02:00:12;;;;;;;3.93;2.73;;;9.70;99.90;;;;;;5051944;28;20208;-52
2022/11/04 02:02:49;;;;;;;3.90;3.03;;;9.70;99.90;;;;;;5051500;28;20669;-49
2022/11/04 02:05:16;;;;;;;6.17;3.10;;;9.70;99.90;;;;;;5051547;28;20336;-57
2022/11/04 02:07:43;;;;;;;13.07;3.60;;;9.70;99.90;;;;;;5051206;28;20209;-54
2022/11/04 02:10:11;;;;;;;4.57;3.77;;;9.70;99.90;;;;;;5051447;28;20675;-52
2022/11/04 02:12:50;;;;;;;7.87;3.40;;;9.70;99.90;;;;;;5051118;28;20261;-54
2022/11/04 02:15:26;;;;;;;4.77;3.10;;;9.70;99.90;;;;;;5051452;28;20670;-54
2022/11/04 02:18:16;;;;;;;6.27;3.57;;;9.70;99.90;;;;;;5053454;28;20255;-53
2022/11/04 02:21:11;;;;;;;4.37;3.27;;;9.70;99.90;;;;;;5055145;28;20270;-57
2022/11/04 02:24:28;;;;;;;5.30;3.20;;;9.60;99.90;;;;;;5055353;28;20682;-55
2022/11/04 02:27:19;;;;;;;4.50;3.37;;;9.60;99.90;;;;;;5054945;28;20209;-52
2022/11/04 02:30:03;;;;;;;5.13;3.30;;;9.50;99.90;;;;;;5055175;28;20742;-52
2022/11/04 02:32:42;;;;;;;5.00;3.87;;;9.50;99.90;;;;;;5055194;28;20238;-54
2022/11/04 02:35:17;;;;;;;4.73;3.20;;;9.50;99.90;;;;;;5055143;28;20265;-57
2022/11/04 02:37:53;;;;;;;4.50;3.20;;;9.50;99.90;;;;;;5055154;28;20212;-53
2022/11/04 02:40:27;;;;;;;4.53;2.73;;;9.50;99.90;;;;;;5055231;28;20211;-51
2022/11/04 02:43:00;;;;;;;7.13;3.17;;;9.40;99.90;;;;;;5054698;28;20239;-55
2022/11/04 02:45:36;;;;;;;3.33;2.73;;;9.40;99.90;;;;;;5054969;28;20229;-53
2022/11/04 02:48:07;;;;;;;8.50;2.83;;;9.40;99.90;;;;;;5054627;28;20249;-57
2022/11/04 02:50:42;;;;;;;6.33;2.90;;;9.40;99.90;;;;;;5054823;28;20205;-58
2022/11/04 02:53:16;;;;;;;6.63;2.67;;;9.30;99.90;;;;;;5055066;28;20198;-60
2022/11/04 02:55:46;;;;;;;4.03;2.40;;;9.30;99.90;;;;;;5054712;28;20208;-54
2022/11/04 02:58:16;;;;;;;3.17;2.23;;;9.30;99.90;;;;;;5054412;28;20636;-56
2022/11/04 03:00:46;;;;;;;4.50;2.50;;;9.30;99.90;;;;;;5055075;28;20205;-57
2022/11/04 03:03:17;;;;;;;3.50;2.20;;;9.30;99.90;;;;;;5054833;28;20206;-57
2022/11/04 03:05:48;;;;;;;7.33;2.47;;;9.20;99.90;;;;;;5054459;28;20291;-57
2022/11/04 03:08:19;;;;;;;4.07;2.60;;;9.20;99.90;;;;;;5054274;28;20269;-56
2022/11/04 03:10:50;;;;;;;6.47;2.70;;;9.20;99.90;;;;;;5054404;28;20261;-57
2022/11/04 03:13:20;;;;;;;8.00;2.73;;;9.10;99.90;;;;;;5054446;28;20212;-55
2022/11/04 03:15:53;;;;;;;4.40;2.20;;;9.10;99.90;;;;;;5054602;28;20322;-52
2022/11/04 03:18:26;;;;;;;2.70;1.90;;;9.00;99.90;;;;;;5054477;28;20217;-54
2022/11/04 03:20:58;;;;;;;5.27;2.33;;;9.00;99.90;;;;;;5054314;28;20209;-57
2022/11/04 03:23:25;;;;;;;4.43;2.30;;;9.00;99.90;;;;;;5054122;28;20241;-57
2022/11/04 03:25:57;;;;;;;4.57;1.77;;;8.90;99.90;;;;;;5054415;28;20223;-57
2022/11/04 03:28:34;;;;;;;4.60;1.93;;;8.90;99.90;;;;;;5053391;28;20264;-55
2022/11/04 03:31:04;;;;;;;4.83;2.20;;;8.90;99.90;;;;;;5054162;28;20230;-55
2022/11/04 03:33:38;;;;;;;8.23;1.87;;;8.90;99.90;;;;;;5053850;28;20670;-57
2022/11/04 03:36:07;;;;;;;6.30;1.87;;;8.80;99.90;;;;;;5054074;28;20202;-55
2022/11/04 03:38:34;;;;;;;6.97;2.30;;;8.80;99.90;;;;;;5053867;28;20764;-57
2022/11/04 03:41:04;;;;;;;5.67;2.33;;;8.80;99.90;;;;;;5053852;28;20276;-58
2022/11/04 03:43:32;;;;;;;5.20;1.87;;;8.80;99.90;;;;;;5053668;28;20210;-57
2022/11/04 03:45:59;;;;;;;6.97;1.80;;;8.80;99.90;;;;;;5053436;28;20225;-57
2022/11/04 03:48:27;;;;;;;6.30;2.23;;;8.70;99.90;;;;;;5053582;28;20255;-57
2022/11/04 03:50:54;;;;;;;4.17;2.10;;;8.70;99.90;;;;;;5053729;28;20735;-56
2022/11/04 03:53:23;;;;;;;3.53;1.53;;;8.60;99.90;;;;;;5053785;28;20202;-55
2022/11/04 03:56:05;;;;;;;6.93;1.67;;;8.60;99.90;;;;;;5053603;28;20209;-57
2022/11/04 03:58:41;;;;;;;3.50;2.13;;;8.60;99.90;;;;;;5053457;28;20208;-58
2022/11/04 04:01:14;;;;;;;2.70;1.70;;;8.60;99.90;;;;;;5053598;28;20278;-55
2022/11/04 04:03:50;;;;;;;6.50;1.60;;;8.60;99.90;;;;;;5053527;28;20298;-57
2022/11/04 04:06:20;;;;;;;5.03;2.17;;;8.60;99.90;;;;;;5053279;28;20234;-57
2022/11/04 04:08:53;;;;;;;4.43;2.00;;;8.60;99.90;;;;;;5053409;28;20285;-57
2022/11/04 04:11:23;;;;;;;4.30;1.50;;;8.60;99.90;;;;;;5053338;28;20293;-56
2022/11/04 04:13:56;;;;;;;5.07;1.70;;;8.60;99.90;;;;;;5053425;28;20215;-57
2022/11/04 04:16:29;;;;;;;8.23;1.80;;;8.60;99.90;;;;;;5053053;28;20257;-56
2022/11/04 04:19:00;;;;;;;4.03;1.97;;;8.60;99.90;;;;;;5053140;28;20603;-57
2022/11/04 04:21:31;;;;;;;10.13;2.27;;;8.60;99.90;;;;;;5053062;28;20609;-58
2022/11/04 04:29:34;;;;;;;7.97;2.23;;;8.60;99.90;;;;;;5053030;28;20205;-57
2022/11/04 04:32:03;;;;;;;6.40;1.90;;;8.60;99.90;;;;;;5052698;28;20226;-56
2022/11/04 04:34:33;;;;;;;4.93;1.80;;;8.50;99.90;;;;;;5052699;28;20578;-58
2022/11/04 04:37:04;;;;;;;7.27;1.90;;;8.50;99.90;;;;;;5052999;28;20277;-57
2022/11/04 04:45:22;;;;;;;8.40;2.50;;;8.50;99.90;;;;;;5016556;28;20269;-56
2022/11/04 04:47:49;;;;;;;9.77;2.40;;;8.40;99.90;;;;;;5052454;28;20673;-57
2022/11/04 04:50:20;;;;;;;8.97;2.30;;;8.40;99.90;;;;;;5052645;28;20269;-57
2022/11/04 04:52:48;;;;;;;4.87;2.00;;;8.40;99.90;;;;;;5052449;28;20268;-52
2022/11/04 04:55:15;;;;;;;6.97;2.43;;;8.50;99.90;;;;;;5052686;28;20201;-50
2022/11/04 04:57:43;;;;;;;9.97;2.40;;;8.40;99.90;;;;;;5052054;28;20679;-54
2022/11/04 05:00:13;;;;;;;8.33;2.17;;;8.50;99.90;;;;;;5052528;28;20206;-55
2022/11/04 05:02:40;;;;;;;11.60;1.93;;;8.40;99.90;;;;;;5052362;28;20291;-55
2022/11/04 05:05:09;;;;;;;3.30;1.80;;;8.40;99.90;;;;;;5052577;28;20603;-56
2022/11/04 05:07:37;;;;;;;6.73;2.43;;;8.40;99.90;;;;;;5052213;28;20209;-51
2022/11/04 05:10:04;;;;;;;7.50;1.93;;;8.40;99.90;;;;;;5052480;28;20202;-54
2022/11/04 05:13:24;;;;;;;7.73;1.73;;;8.30;99.90;;;;;;5052343;28;20234;-62
2022/11/04 05:15:17;;;;;;;3.60;1.83;;;8.30;99.90;;;;;;5052025;28;20206;-57
2022/11/04 05:17:44;;;;;;;7.33;1.73;;;8.30;99.90;;;;;;5051783;28;20221;-54
2022/11/04 05:20:11;;;;;;;7.87;1.90;;;8.20;99.90;;;;;;5051919;28;20212;-57
2022/11/04 05:22:40;;;;;;;5.13;1.50;;;8.20;99.90;;;;;;5051979;28;20712;-55
2022/11/04 05:25:07;;;;;;;7.93;1.40;;;8.20;99.90;;;;;;5051998;28;20252;-57
2022/11/04 05:27:33;;;;;;;4.87;1.07;;;8.20;99.90;;;;;;5051762;28;20218;-56
2022/11/04 05:30:00;;;;;;;5.70;1.50;;;8.20;99.90;;;;;;5051987;28;20255;-57
2022/11/04 05:32:29;;;;;;;6.47;1.50;;;8.20;99.90;;;;;;5051749;28;20225;-56
2022/11/04 05:34:56;;;;;;;6.07;1.60;;;8.20;99.90;;;;;;5051904;28;20301;-56
2022/11/04 05:37:23;;;;;;;3.87;1.50;;;8.10;99.90;;;;;;5051773;28;20209;-57
2022/11/04 05:39:51;;;;;;;6.03;1.50;;;8.10;99.90;;;;;;5051943;28;20206;-57
2022/11/04 05:42:17;;;;;;;4.80;1.37;;;8.10;99.90;;;;;;5051532;28;20233;-57
2022/11/04 05:44:44;;;;;;;3.57;1.30;;;8.10;99.90;;;;;;5051677;28;20206;-57
2022/11/04 05:47:11;;;;;;;8.40;1.37;;;8.10;99.90;;;;;;5051404;28;20229;-55
2022/11/04 05:49:37;;;;;;;6.63;1.73;;;8.10;99.90;;;;;;5051687;28;20259;-57
2022/11/04 05:52:06;;;;;;;5.53;1.33;;;8.10;99.90;;;;;;5051211;28;20230;-56
2022/11/04 05:54:32;;;;;;;6.80;1.60;;;8.20;99.90;;;;;;5051706;28;20202;-57
2022/11/04 05:57:00;;;;;;;10.90;2.10;;;8.20;99.90;;;;;;5051383;28;20739;-58
2022/11/04 05:59:27;;;;;;;6.87;3.03;;;8.20;99.90;;;;;;5051471;28;20217;-56
2022/11/04 06:01:53;;;;;;;5.03;1.60;;;8.20;99.90;;;;;;5051851;28;20284;-53
2022/11/04 06:04:20;;;;;;;4.77;1.73;;;8.20;99.90;;;;;;5051683;28;20213;-49
2022/11/04 06:06:47;;;;;;;4.23;1.30;;;8.20;99.90;;;;;;5051429;28;20232;-50
2022/11/04 06:09:14;;;;;;;8.90;1.63;;;8.20;99.90;;;;;;5051277;28;20216;-52
2022/11/04 06:11:41;;;;;;;6.50;1.47;;;8.30;99.90;;;;;;5051678;28;20309;-57
2022/11/04 06:14:09;;;;;;;4.87;1.30;;;8.30;99.90;;;;;;5051355;28;20209;-59
2022/11/04 06:16:35;;;;;;;7.13;1.73;;;8.30;99.90;;;;;;5051696;28;20210;-60
2022/11/04 06:19:02;;;;;;;5.33;1.63;;;8.30;99.90;;;;;;5051930;28;20220;-60
2022/11/04 06:21:30;;;;;;;6.43;1.60;;;8.30;99.90;;;;;;5051423;28;20321;-59
2022/11/04 06:23:58;;;;;;;6.47;1.63;;;8.40;99.90;;;;;;5051445;28;20211;-60
2022/11/04 06:26:26;;;;;;;5.20;1.60;;;8.40;99.90;;;;;;5050642;28;20222;-60
2022/11/04 06:28:53;;;;;;;7.47;1.90;;;8.40;99.90;;;;;;5051088;28;20203;-59
2022/11/04 06:31:21;;;;;;;6.70;2.13;;;8.40;99.90;;;;;;5051313;28;20230;-61
2022/11/04 06:33:48;;;;;;;10.00;1.73;;;8.50;99.90;;;;;;5051068;28;20202;-61
2022/11/04 06:36:16;;;;;;;6.40;1.70;;;8.50;99.90;;;;;;5051047;28;20672;-61
2022/11/04 06:38:43;;;;;;;10.63;1.70;;;8.50;99.90;;;;;;5051366;28;20249;-60
2022/11/04 06:41:13;;;;;;;2.10;1.40;;;8.50;99.90;;;;;;5050882;28;20277;-60
2022/11/04 06:43:40;;;;;;;4.00;1.50;;;8.50;99.90;;;;;;5051470;28;20264;-61
2022/11/04 06:46:07;;;;;;;6.40;1.67;;;8.50;99.90;;;;;;5051128;28;20258;-61
2022/11/04 06:48:35;;;;;;;2.10;1.67;;;8.50;99.90;;;;;;5051254;28;20211;-61
2022/11/04 06:51:01;;;;;;;8.13;1.73;;;8.50;99.90;;;;;;5051004;28;20230;-61
2022/11/04 06:53:29;;;;;;;5.43;1.50;;;8.50;99.90;;;;;;5051219;28;20275;-61
2022/11/04 06:56:02;;;;;;;5.87;1.90;;;8.50;99.90;;;;;;5050776;28;20253;-61
2022/11/04 06:58:29;;;;;;;4.33;2.00;;;8.40;99.90;;;;;;5051556;28;20208;-61
2022/11/04 07:00:56;;;;;;;5.80;2.00;;;8.40;99.90;;;;;;5050894;28;20234;-61
2022/11/04 07:03:22;;;;;;;7.53;1.80;;;8.50;99.90;;;;;;5051053;28;20205;-61
2022/11/04 07:05:50;;;;;;;4.80;2.07;;;8.50;99.90;;;;;;5054219;28;20280;-61
2022/11/04 07:08:17;;;;;;;4.90;1.90;;;8.50;99.90;;;;;;5054442;28;20211;-61
2022/11/04 07:10:44;;;;;;;3.47;1.67;;;8.50;99.90;;;;;;5054264;28;20206;-61
2022/11/04 07:13:10;;;;;;;8.03;1.77;;;8.50;99.90;;;;;;5054518;28;20238;-61
2022/11/04 07:15:38;;;;;;;5.97;2.43;;;8.50;99.90;;;;;;5054252;28;20212;-61
2022/11/04 07:18:06;;;;;;;6.87;1.97;;;8.50;99.90;;;;;;5054286;28;20207;-61
2022/11/04 07:20:33;;;;;;;5.90;1.80;;;8.50;99.90;;;;;;5054227;28;20298;-60
2022/11/04 07:23:01;;;;;;;3.00;1.60;;;8.50;99.90;;;;;;5054087;28;20230;-60
2022/11/04 07:25:27;;;;;;;5.50;1.60;;;8.50;99.90;;;;;;5054376;28;20210;-61
2022/11/04 07:27:54;;;;;;;4.87;1.80;;;8.50;99.90;;;;;;5053973;28;20609;-61
2022/11/04 07:30:21;;;;;;;8.33;1.90;;;8.60;99.90;;;;;;5054140;28;20211;-61
2022/11/04 07:32:47;;;;;;;8.67;2.13;;;8.60;99.90;;;;;;5054069;28;20229;-61
2022/11/04 07:35:14;;;;;;;6.70;2.20;;;8.60;99.90;;;;;;5053938;28;20579;-61
2022/11/04 07:37:41;;;;;;;5.33;2.13;;;8.70;99.90;;;;;;5053860;28;20209;-61
2022/11/04 07:40:10;;;;;;;7.23;1.80;;;8.70;99.90;;;;;;5054036;28;20269;-61
2022/11/04 07:42:37;;;;;;;5.67;1.93;;;8.70;99.90;;;;;;5053729;28;20242;-61
2022/11/04 07:45:04;;;;;;;3.40;1.83;;;8.80;99.90;;;;;;5053995;28;20448;-61
2022/11/04 07:47:32;;;;;;;4.53;2.50;;;8.80;99.90;;;;;;5053627;28;20239;-61
2022/11/04 07:49:58;;;;;;;8.37;2.93;;;8.80;99.90;;;;;;5053675;28;20204;-61
2022/11/04 07:52:25;;;;;;;5.77;1.90;;;8.90;99.90;;;;;;5053821;28;20228;-61
2022/11/04 07:54:52;;;;;;;6.43;2.30;;;8.90;99.90;;;;;;5053560;28;20263;-61
2022/11/04 07:57:20;;;;;;;4.63;1.70;;;9.00;99.90;;;;;;5053478;28;20205;-61
2022/11/04 07:59:46;;;;;;;4.40;1.90;;;9.00;99.90;;;;;;5053744;28;20201;-60
2022/11/04 08:02:13;;;;;;;5.77;1.70;;;9.00;99.90;;;;;;5053482;28;20224;-61
2022/11/04 08:04:40;;;;;;;7.57;1.90;;;9.00;99.90;;;;;;5053310;28;20217;-61
2022/11/04 08:07:08;;;;;;;7.77;2.00;;;9.00;99.90;;;;;;5053151;28;20725;-61
2022/11/04 08:09:36;;;;;;;5.23;1.73;;;9.00;99.90;;;;;;5053371;28;20213;-61
2022/11/04 08:12:04;;;;;;;7.43;1.97;;;9.10;99.90;;;;;;5053295;28;20319;-61
2022/11/04 08:14:32;;;;;;;5.27;1.67;;;9.10;99.90;;;;;;5052920;28;20296;-61
2022/11/04 08:16:59;;;;;;;9.93;1.83;;;9.20;99.90;;;;;;5052918;28;20204;-61
2022/11/04 08:19:26;;;;;;;10.43;1.93;;;9.20;99.90;;;;;;5053333;28;20209;-61
2022/11/04 08:21:52;;;;;;;5.70;1.70;;;9.30;99.90;;;;;;5052909;28;20795;-61
2022/11/04 08:24:19;;;;;;;4.37;1.57;;;9.30;99.90;;;;;;5053271;28;20216;-61
2022/11/04 08:26:46;;;;;;;9.33;2.27;;;9.40;99.90;;;;;;5052685;28;20228;-61
2022/11/04 08:29:13;;;;;;;5.37;1.60;;;9.40;99.90;;;;;;5053078;28;20213;-61
2022/11/04 08:31:41;;;;;;;5.90;1.87;;;9.40;99.90;;;;;;5052610;28;20229;-61
2022/11/04 08:34:08;;;;;;;5.23;2.00;;;9.50;99.90;;;;;;5053163;28;20267;-61
2022/11/04 08:36:39;;;;;;;6.27;1.60;;;9.50;99.90;;;;;;5052755;28;20198;-61
2022/11/04 08:39:07;;;;;;;4.23;1.80;;;9.60;99.90;;;;;;5053025;28;20252;-61
2022/11/04 08:41:37;;;;;;;4.50;1.93;;;9.60;99.90;;;;;;5052602;28;20233;-61
2022/11/04 08:44:05;;;;;;;9.37;2.03;;;9.60;99.90;;;;;;5052725;28;20208;-61
2022/11/04 08:46:33;;;;;;;8.90;1.73;;;9.60;99.90;;;;;;5052580;28;20233;-62
2022/11/04 08:49:02;;;;;;;8.37;2.17;;;9.70;99.90;;;;;;5052907;28;20206;-61
2022/11/04 08:51:30;;;;;;;5.17;1.87;;;9.70;99.90;;;;;;5052532;28;20599;-61
2022/11/04 08:53:57;;;;;;;4.20;1.73;;;9.80;99.90;;;;;;5052579;28;20216;-61
2022/11/04 08:56:26;;;;;;;5.70;2.03;;;9.90;99.90;;;;;;5052230;28;20198;-61
2022/11/04 08:58:53;;;;;;;8.47;2.00;;;9.90;99.90;;;;;;5052481;28;20643;-61
2022/11/04 09:01:20;;;;;;;5.90;2.17;;;9.90;99.90;;;;;;5052338;28;20249;-61
2022/11/04 09:03:48;;;;;;;3.33;2.17;;;9.90;99.90;;;;;;5052599;28;20205;-61
2022/11/04 09:06:20;;;;;;;6.13;2.33;;;10.00;99.90;;;;;;5052082;28;20224;-61
2022/11/04 09:08:47;;;;;;;5.57;2.53;;;10.00;99.90;;;;;;5052483;28;20231;-61
2022/11/04 09:11:16;;;;;;;4.10;2.33;;;10.00;99.90;;;;;;5051997;28;20283;-61
2022/11/04 09:13:43;;;;;;;6.63;2.27;;;10.10;99.90;;;;;;5052409;28;20300;-61
2022/11/04 09:16:12;;;;;;;8.20;2.40;;;10.20;99.90;;;;;;5052056;28;20295;-61
2022/11/04 09:18:39;;;;;;;9.20;2.50;;;10.30;99.90;;;;;;5052261;28;20206;-61
2022/11/04 09:21:08;;;;;;;6.13;2.40;;;10.30;99.90;;;;;;5052024;28;20634;-61
2022/11/04 09:23:37;;;;;;;7.03;2.10;;;10.40;99.90;;;;;;5052116;28;20201;-61
2022/11/04 09:26:06;;;;;;;5.87;2.23;;;10.40;99.90;;;;;;5051623;28;20634;-62
2022/11/04 09:28:32;;;;;;;8.57;2.70;;;10.50;99.90;;;;;;5051750;28;20300;-61
2022/11/04 09:30:59;;;;;;;7.23;3.03;;;10.60;99.90;;;;;;5052029;28;20210;-61
2022/11/04 09:33:26;;;;;;;11.20;2.73;;;10.70;99.90;;;;;;5051992;28;20255;-61
2022/11/04 09:35:56;;;;;;;7.00;3.00;;;10.70;99.90;;;;;;5051612;28;20210;-60
2022/11/04 09:38:23;;;;;;;5.77;2.20;;;10.80;99.90;;;;;;5051496;28;20202;-61
2022/11/04 09:40:51;;;;;;;5.17;2.00;;;10.80;99.90;;;;;;5051906;28;20205;-61
2022/11/04 09:43:32;;;;;;;5.13;1.80;;;10.80;99.90;;;;;;5051895;28;20637;-61
2022/11/04 09:45:59;;;;;;;3.93;2.00;;;10.80;99.90;;;;;;5051809;28;20316;-61
2022/11/04 09:48:29;;;;;;;2.80;1.90;;;10.90;99.90;;;;;;5051680;28;20221;-61
2022/11/04 09:50:59;;;;;;;5.73;2.23;;;10.90;99.90;;;;;;5051515;28;20193;-61
2022/11/04 09:53:30;;;;;;;5.60;2.00;;;10.90;99.90;;;;;;5051548;28;20676;-62
2022/11/04 09:56:01;;;;;;;3.37;1.70;;;10.90;99.90;;;;;;5051391;28;20759;-61
2022/11/04 09:58:32;;;;;;;4.80;1.60;;;11.00;99.90;;;;;;5051954;28;20292;-61
2022/11/04 10:01:03;;;;;;;3.57;1.60;;;11.00;99.90;;;;;;5051588;28;20587;-62
2022/11/04 10:03:45;;;;;;;4.63;1.70;;;11.10;99.90;;;;;;5051407;28;20198;-61
2022/11/04 10:06:27;;;;;;;8.23;1.90;;;11.10;99.90;;;;;;5051506;28;20201;-61
2022/11/04 10:09:08;;;;;;;5.77;1.50;;;11.10;99.90;;;;;;5051509;28;20684;-61
2022/11/04 10:11:45;;;;;;;3.37;1.80;;;11.10;99.90;;;;;;5051178;28;20229;-62
2022/11/04 10:14:33;;;;;;;6.97;1.90;;;11.10;99.90;;;;;;5051742;28;20209;-61
2022/11/04 10:17:10;;;;;;;6.00;1.73;;;11.00;99.90;;;;;;5051172;28;20244;-61
2022/11/04 10:19:50;;;;;;;8.10;1.77;;;11.00;99.90;;;;;;5051600;28;20566;-61
2022/11/04 10:22:27;;;;;;;4.50;2.10;;;11.10;99.90;;;;;;5051348;28;20335;-62
2022/11/04 10:25:02;;;;;;;9.30;2.00;;;11.20;99.90;;;;;;5051404;28;20305;-61
2022/11/04 10:27:34;;;;;;;8.20;1.60;;;11.40;99.90;;;;;;5051184;28;20227;-62
2022/11/04 10:30:04;;;;;;;7.03;1.53;;;11.70;99.90;;;;;;5051405;28;20215;-62
2022/11/04 10:32:35;;;;;;;6.93;2.03;;;11.90;99.90;;;;;;5051182;28;20227;-61
2022/11/04 10:35:05;;;;;;;5.37;1.93;;;12.20;99.90;;;;;;5051854;28;20632;-62
2022/11/04 10:37:34;;;;;;;4.23;1.60;;;12.30;99.90;;;;;;5051477;28;20210;-60
2022/11/04 10:40:16;;;;;;;8.77;1.67;;;12.40;99.90;;;;;;5055350;28;20209;-59
2022/11/04 10:42:44;;;;;;;8.63;1.60;;;12.50;99.90;;;;;;5054938;28;20325;-61
2022/11/04 10:45:12;;;;;;;4.83;1.40;;;12.60;99.90;;;;;;5055120;28;20713;-60
2022/11/04 10:47:47;;;;;;;8.83;1.90;;;12.70;99.90;;;;;;5054858;28;20225;-59
2022/11/04 10:50:27;;;;;;;7.90;1.97;;;12.80;81.70;;;;;;5054884;28;20724;-61
2022/11/04 10:52:56;;;;;;;4.90;1.40;;;12.90;38.50;;;;;;5054904;28;20225;-61
2022/11/04 10:55:32;;;;;;;6.17;1.20;;;13.00;93.50;;;;;;5054879;28;20725;-61
2022/11/04 10:58:01;;;;;;;5.47;1.20;;;13.20;61.60;;;;;;5054752;28;20275;-61
2022/11/04 11:00:36;;;;;;;4.83;1.40;;;13.30;58.70;;;;;;5055137;28;20205;-61
2022/11/04 11:03:03;;;;;;;4.60;1.40;;;13.30;23.10;;;;;;5054500;28;20229;-61
2022/11/04 11:05:30;;;;;;;3.93;1.47;;;13.30;18.70;;;;;;5054594;28;20216;-61
2022/11/04 11:07:58;;;;;;;6.00;1.93;;;13.40;52.90;;;;;;5054245;28;20594;-60
2022/11/04 11:10:26;;;;;;;5.67;1.70;;;13.30;17.90;;;;;;5054721;28;20233;-61
2022/11/04 11:13:00;;;;;;;5.27;1.30;;;13.30;34.10;;;;;;5054521;28;20226;-61
2022/11/04 11:15:33;;;;;;;4.23;1.40;;;13.20;1.00;;;;;;5054550;28;20263;-61
2022/11/04 11:18:13;;;;;;;7.80;1.40;;;12.90;4.50;;;;;;5054291;28;20714;-61
2022/11/04 11:20:41;;;;;;;6.03;1.40;;;12.70;46.50;;;;;;5054558;28;20204;-62
2022/11/04 11:23:33;;;;;;;6.23;1.20;;;12.40;34.30;;;;;;5054245;28;20202;-61
2022/11/04 11:26:01;;;;;;;3.23;1.20;;;12.30;28.40;;;;;;5054462;28;20209;-61
2022/11/04 11:28:28;;;;;;;3.57;1.10;;;12.20;22.70;;;;;;5054802;28;20278;-61
2022/11/04 11:30:59;;;;;;;6.00;1.27;;;12.10;35.50;;;;;;5054004;28;20213;-61
2022/11/04 11:33:29;;;;;;;2.70;1.30;;;12.00;39.60;;;;;;5054402;28;20353;-61
2022/11/04 11:35:59;;;;;;;2.83;1.50;;;12.00;55.20;;;;;;5054092;28;20228;-61
2022/11/04 11:38:28;;;;;;;2.27;1.30;;;12.00;54.60;;;;;;5054163;28;20205;-61
2022/11/04 11:41:07;;;;;;;6.03;1.80;;;11.90;22.20;;;;;;5053779;28;20208;-61
2022/11/04 11:43:36;;;;;;;8.13;2.23;;;11.90;46.10;;;;;;5054260;28;20216;-61
2022/11/04 11:46:04;;;;;;;4.33;1.33;;;11.90;62.80;;;;;;5053854;28;20571;-61
2022/11/04 11:48:33;;;;;;;5.30;1.80;;;11.90;51.00;;;;;;5054078;28;20243;-61
2022/11/04 11:51:00;;;;;;;5.80;1.97;;;11.90;52.70;;;;;;5052755;28;20388;-62
2022/11/04 11:53:29;;;;;;;3.63;1.60;;;11.90;85.50;;;;;;5053132;28;20202;-61
2022/11/04 11:56:01;;;;;;;11.77;2.27;;;11.90;80.70;;;;;;5053443;28;21009;-62
2022/11/04 11:58:35;;;;;;;5.00;1.50;;;11.90;92.90;;;;;;5053728;28;20255;-62
2022/11/04 12:01:08;;;;;;;4.60;1.30;;;11.90;80.10;;;;;;5053603;28;20266;-62
2022/11/04 12:03:39;;;;;;;4.17;1.43;;;11.90;61.40;;;;;;5053627;28;20204;-61
2022/11/04 12:06:29;;;;;;;7.57;1.80;;;11.90;67.00;;;;;;5053244;28;20211;-62
2022/11/04 12:09:11;;;;;;;7.87;1.87;;;11.90;93.90;;;;;;5053671;28;20283;-62
2022/11/04 12:11:46;;;;;;;5.07;1.80;;;11.90;92.20;;;;;;5053553;28;20290;-61
2022/11/04 12:14:19;;;;;;;8.83;1.47;;;11.90;68.80;;;;;;5053332;28;20216;-61
2022/11/04 12:16:56;;;;;;;4.17;1.50;;;11.90;50.80;;;;;;5053371;28;20200;-61
2022/11/04 12:19:33;;;;;;;7.90;1.40;;;11.90;45.00;;;;;;5053393;28;20205;-62
2022/11/04 12:22:06;;;;;;;6.97;1.47;;;11.90;43.60;;;;;;5053183;28;20228;-61
2022/11/04 12:24:45;;;;;;;9.03;1.80;;;11.90;40.00;;;;;;5053141;28;20702;-60
2022/11/04 12:27:20;;;;;;;7.17;1.73;;;11.90;43.00;;;;;;5052932;28;20212;-61
2022/11/04 12:30:02;;;;;;;7.07;1.60;;;11.80;41.40;;;;;;5052964;28;20263;-61
2022/11/04 12:32:41;;;;;;;6.40;1.60;;;11.90;44.80;;;;;;5053088;28;20579;-60
2022/11/04 12:35:25;;;;;;;6.23;1.63;;;11.90;81.90;;;;;;5050351;28;20208;-67
2022/11/04 12:38:02;;;;;;;3.00;1.20;;;12.00;74.10;;;;;;5018570;28;20208;-60
2022/11/04 12:40:35;;;;;;;5.13;1.73;;;12.00;81.60;;;;;;5032062;28;20251;-59
2022/11/04 12:43:15;;;;;;;4.20;1.60;;;12.20;85.90;;;;;;5032260;28;20236;-59
2022/11/04 12:45:52;;;;;;;4.33;1.50;;;12.20;88.30;;;;;;5030803;28;20607;-56
2022/11/04 12:48:35;;;;;;;10.80;1.80;;;12.30;34.80;;;;;;5032373;28;20239;-60
2022/11/04 12:51:11;;;;;;;6.17;1.77;;;12.30;55.90;;;;;;5031746;28;20231;-61
2022/11/04 12:53:58;;;;;;;6.20;1.83;;;12.30;69.80;;;;;;5031878;28;20679;-63
2022/11/04 12:56:36;;;;;;;4.87;1.60;;;12.30;50.40;;;;;;5031190;28;20212;-61
2022/11/04 12:59:43;;;;;;;6.20;1.77;;;12.30;79.90;;;;;;5032057;28;20207;-62
2022/11/04 13:02:16;;;;;;;6.23;1.67;;;12.30;57.10;;;;;;5031368;28;20230;-59
2022/11/04 13:04:50;;;;;;;7.80;2.10;;;12.20;76.20;;;;;;5031738;28;20217;-61
2022/11/04 13:07:22;;;;;;;9.00;2.00;;;12.20;81.70;;;;;;5031009;28;20233;-64
2022/11/04 13:09:53;;;;;;;5.90;1.67;;;12.20;58.00;;;;;;5032004;28;20202;-64
2022/11/04 13:12:23;;;;;;;6.60;1.70;;;12.30;57.30;;;;;;5031392;28;20241;-62
2022/11/04 13:14:54;;;;;;;3.30;1.80;;;12.30;50.00;;;;;;5031594;28;20624;-61
2022/11/04 13:17:26;;;;;;;5.30;2.00;;;12.30;40.50;;;;;;5031531;28;20268;-60
2022/11/04 13:19:58;;;;;;;7.10;1.80;;;12.20;36.70;;;;;;5029489;28;20586;-59
2022/11/04 13:22:27;;;;;;;8.03;2.10;;;12.20;52.10;;;;;;5031666;28;20230;-59
2022/11/04 13:24:58;;;;;;;5.53;1.80;;;12.10;46.80;;;;;;5030984;28;20214;-61
2022/11/04 13:27:32;;;;;;;3.73;1.90;;;12.00;60.70;;;;;;5030737;28;20300;-60
2022/11/04 13:30:06;;;;;;;5.30;1.80;;;12.00;72.00;;;;;;5031244;28;20581;-64
2022/11/04 13:32:40;;;;;;;6.40;1.40;;;12.00;93.00;;;;;;5031015;28;20236;-64
2022/11/04 13:35:18;;;;;;;3.50;1.37;;;11.90;74.70;;;;;;5030872;28;20672;-65
2022/11/04 13:37:52;;;;;;;4.07;1.30;;;12.10;84.10;;;;;;5031028;28;20251;-66